createdAt,value
2023-03-07T00:00:06.952Z,7.05
2023-03-07T00:01:31.612Z,6.21
2023-03-07T00:02:54.662Z,6.79
2023-03-07T00:04:18.199Z,6.51
2023-03-07T00:05:40.316Z,6.77
2023-03-07T00:07:02.633Z,6.87
2023-03-07T00:08:25.998Z,6.24
2023-03-07T00:09:49.873Z,8.53
2023-03-07T00:11:13.869Z,6.98
2023-03-07T00:12:39.100Z,7.03
2023-03-07T00:14:01.723Z,6.87
2023-03-07T00:15:24.266Z,6.81
2023-03-07T00:16:52.352Z,6.16
2023-03-07T00:18:14.520Z,6.39
2023-03-07T00:21:01.983Z,6.34
2023-03-07T00:22:23.556Z,6.30
2023-03-07T00:23:45.730Z,6.47
2023-03-07T00:25:09.274Z,6.07
2023-03-07T00:26:31.194Z,7.53
2023-03-07T00:27:54.640Z,6.06
2023-03-07T00:29:17.074Z,10.43
2023-03-07T00:30:41.997Z,9.81
2023-03-07T00:32:05.452Z,8.15
2023-03-07T00:33:29.629Z,7.81
2023-03-07T00:34:51.579Z,7.04
2023-03-07T00:36:18.064Z,7.11
2023-03-07T00:37:39.907Z,7.00
2023-03-07T00:39:02.150Z,11.71
2023-03-07T00:40:24.389Z,9.82
2023-03-07T00:41:46.338Z,8.16
2023-03-07T00:43:08.849Z,7.46
2023-03-07T00:44:31.770Z,7.95
2023-03-07T00:45:54.744Z,6.67
2023-03-07T00:47:17.466Z,6.56
2023-03-07T00:48:39.863Z,7.29
2023-03-07T00:50:02.026Z,7.09
2023-03-07T00:51:24.748Z,8.16
2023-03-07T00:52:47.201Z,7.55
2023-03-07T00:54:09.394Z,7.99
2023-03-07T00:55:33.364Z,6.76
2023-03-07T00:56:55.289Z,6.45
2023-03-07T00:58:19.562Z,7.29
2023-03-07T00:59:42.635Z,6.58
2023-03-07T01:01:08.439Z,5.72
2023-03-07T01:02:32.044Z,6.68
2023-03-07T01:03:54.069Z,7.75
2023-03-07T01:05:17.385Z,7.50
2023-03-07T01:08:04.914Z,7.56
2023-03-07T01:09:27.137Z,6.01
2023-03-07T01:10:49.386Z,5.88
2023-03-07T01:12:11.912Z,7.09
2023-03-07T01:13:35.804Z,6.36
2023-03-07T01:14:58.273Z,7.42
2023-03-07T01:16:23.384Z,6.27
2023-03-07T01:17:45.481Z,7.34
2023-03-07T01:19:09.670Z,8.31
2023-03-07T01:20:34.401Z,6.13
2023-03-07T01:21:56.081Z,6.42
2023-03-07T01:23:18.561Z,6.03
2023-03-07T01:26:04.478Z,8.84
2023-03-07T01:27:26.624Z,7.49
2023-03-07T01:28:52.618Z,7.44
2023-03-07T01:30:17.357Z,7.76
2023-03-07T01:31:39.813Z,7.42
2023-03-07T01:33:02.761Z,7.20
2023-03-07T01:34:25.035Z,6.38
2023-03-07T01:35:47.652Z,6.73
2023-03-07T01:37:10.868Z,7.49
2023-03-07T01:39:54.477Z,8.79
2023-03-07T01:41:16.620Z,8.94
2023-03-07T01:42:38.934Z,7.91
2023-03-07T01:44:02.469Z,6.38
2023-03-07T01:46:58.577Z,8.33
2023-03-07T01:48:22.272Z,8.10
2023-03-07T01:49:44.062Z,7.54
2023-03-07T01:51:06.308Z,7.33
2023-03-07T01:52:32.239Z,9.04
2023-03-07T01:53:54.750Z,11.47
2023-03-07T01:55:18.897Z,17.24
2023-03-07T01:56:41.501Z,23.42
2023-03-07T01:59:22.526Z,18.57
2023-03-07T02:00:45.355Z,18.68
2023-03-07T02:02:09.769Z,18.51
2023-03-07T02:03:38.853Z,30.54
2023-03-07T02:05:21.941Z,19.15
2023-03-07T02:06:45.245Z,26.34
2023-03-07T02:08:07.735Z,26.90
2023-03-07T02:09:29.935Z,12.81
2023-03-07T02:10:51.724Z,19.42
2023-03-07T02:12:13.803Z,21.74
2023-03-07T02:13:36.189Z,17.84
2023-03-07T02:14:58.018Z,11.12
2023-03-07T02:16:19.992Z,14.78
2023-03-07T02:17:42.519Z,19.63
2023-03-07T02:19:04.585Z,20.42
2023-03-07T02:20:39.153Z,20.39
2023-03-07T02:22:11.242Z,20.33
2023-03-07T02:23:47.629Z,18.83
2023-03-07T02:25:13.276Z,11.63
2023-03-07T02:26:47.726Z,12.47
2023-03-07T02:29:25.862Z,10.61
2023-03-07T02:30:58.038Z,10.31
2023-03-07T02:32:20.040Z,11.82
2023-03-07T02:33:41.290Z,11.16
2023-03-07T02:36:32.377Z,9.98
2023-03-07T02:37:57.987Z,9.05
2023-03-07T02:39:19.736Z,8.70
2023-03-07T02:40:41.517Z,8.30
2023-03-07T02:42:06.641Z,9.18
2023-03-07T02:43:28.313Z,11.56
2023-03-07T02:45:01.022Z,9.99
2023-03-07T02:46:23.079Z,8.41
2023-03-07T02:47:45.836Z,8.27
2023-03-07T02:49:08.075Z,10.15
2023-03-07T02:50:29.571Z,8.76
2023-03-07T02:51:51.145Z,8.49
2023-03-07T02:53:12.787Z,8.71
2023-03-07T02:54:34.974Z,8.94
2023-03-07T02:55:57.668Z,8.28
2023-03-07T02:57:19.562Z,10.35
2023-03-07T02:58:41.668Z,10.74
2023-03-07T03:00:04.878Z,10.21
2023-03-07T03:01:26.818Z,10.34
2023-03-07T03:02:48.580Z,11.55
2023-03-07T03:04:10.641Z,14.59
2023-03-07T03:05:32.147Z,14.16
2023-03-07T03:06:55.146Z,13.17
2023-03-07T03:08:16.536Z,12.66
2023-03-07T03:09:38.555Z,14.23
2023-03-07T03:11:01.807Z,12.08
2023-03-07T03:12:23.703Z,12.66
2023-03-07T03:13:46.030Z,12.75
2023-03-07T03:15:09.107Z,17.66
2023-03-07T03:16:31.740Z,12.87
2023-03-07T03:17:53.591Z,13.34
2023-03-07T03:19:15.125Z,13.39
2023-03-07T03:20:38.950Z,14.07
2023-03-07T03:22:00.634Z,11.84
2023-03-07T03:23:22.657Z,12.08
2023-03-07T03:24:45.105Z,12.64
2023-03-07T03:26:09.078Z,12.22
2023-03-07T03:27:33.007Z,14.15
2023-03-07T03:28:54.811Z,12.14
2023-03-07T03:30:17.236Z,12.52
2023-03-07T03:31:39.209Z,10.32
2023-03-07T03:33:01.079Z,13.99
2023-03-07T03:34:22.683Z,15.05
2023-03-07T03:35:44.269Z,18.65
2023-03-07T03:37:06.032Z,18.56
2023-03-07T03:38:27.970Z,16.12
2023-03-07T03:39:49.066Z,19.07
2023-03-07T03:41:12.375Z,11.43
2023-03-07T03:42:34.001Z,18.14
2023-03-07T03:43:55.791Z,16.04
2023-03-07T03:45:17.548Z,18.14
2023-03-07T03:46:40.068Z,16.12
2023-03-07T03:48:01.860Z,11.23
2023-03-07T03:49:23.906Z,12.88
2023-03-07T03:50:45.975Z,14.01
2023-03-07T03:52:10.643Z,11.64
2023-03-07T03:53:33.333Z,14.87
2023-03-07T03:54:55.170Z,11.52
2023-03-07T03:56:18.678Z,11.74
2023-03-07T03:57:40.458Z,13.32
2023-03-07T03:59:03.004Z,15.38
2023-03-07T04:00:24.930Z,11.00
2023-03-07T04:01:46.296Z,10.99
2023-03-07T04:03:08.765Z,15.41
2023-03-07T04:04:30.767Z,21.79
2023-03-07T04:05:53.039Z,20.13
2023-03-07T04:07:15.101Z,22.73
2023-03-07T04:08:36.832Z,17.11
2023-03-07T04:09:58.782Z,18.78
2023-03-07T04:11:21.425Z,19.22
2023-03-07T04:12:43.252Z,15.33
2023-03-07T04:14:05.263Z,22.99
2023-03-07T04:15:26.813Z,27.61
2023-03-07T04:16:49.413Z,19.98
2023-03-07T04:18:11.442Z,19.03
2023-03-07T04:19:33.021Z,18.83
2023-03-07T04:20:54.972Z,18.49
2023-03-07T04:22:17.419Z,19.93
2023-03-07T04:23:39.650Z,17.98
2023-03-07T04:25:01.200Z,13.79
2023-03-07T04:26:23.078Z,15.47
2023-03-07T04:29:03.271Z,10.86
2023-03-07T04:30:25.647Z,13.79
2023-03-07T04:31:49.505Z,14.58
2023-03-07T04:33:11.805Z,15.93
2023-03-07T04:34:34.713Z,12.48
2023-03-07T04:36:00.736Z,17.24
2023-03-07T04:37:23.422Z,18.53
2023-03-07T04:38:46.860Z,16.38
2023-03-07T04:40:09.670Z,20.88
2023-03-07T04:41:32.463Z,20.38
2023-03-07T04:42:56.450Z,18.94
2023-03-07T04:44:18.757Z,16.47
2023-03-07T04:45:41.196Z,16.86
2023-03-07T04:47:03.674Z,19.76
2023-03-07T04:48:35.787Z,15.23
2023-03-07T04:50:00.455Z,15.43
2023-03-07T04:51:25.643Z,12.17
2023-03-07T04:52:47.814Z,19.32
2023-03-07T04:54:10.281Z,17.49
2023-03-07T04:55:31.641Z,13.29
2023-03-07T04:56:54.286Z,13.02
2023-03-07T04:58:16.179Z,14.33
2023-03-07T04:59:38.590Z,14.28
2023-03-07T05:02:29.566Z,14.07
2023-03-07T05:03:51.640Z,17.13
2023-03-07T05:05:15.508Z,15.61
2023-03-07T05:06:39.228Z,12.07
2023-03-07T05:08:02.790Z,10.54
2023-03-07T05:09:29.068Z,10.49
2023-03-07T05:10:51.069Z,9.18
2023-03-07T05:12:21.941Z,14.01
2023-03-07T05:13:45.123Z,12.36
2023-03-07T05:15:09.343Z,12.84
2023-03-07T05:16:31.986Z,19.16
2023-03-07T05:17:55.377Z,15.99
2023-03-07T05:19:18.209Z,19.08
2023-03-07T05:22:05.328Z,20.55
2023-03-07T05:23:27.508Z,30.26
2023-03-07T05:24:53.647Z,28.27
2023-03-07T05:26:16.278Z,27.44
2023-03-07T05:27:39.140Z,20.19
2023-03-07T05:29:16.969Z,27.45
2023-03-07T05:30:42.671Z,11.01
2023-03-07T05:32:13.366Z,16.24
2023-03-07T05:33:35.685Z,18.16
2023-03-07T05:34:59.713Z,16.24
2023-03-07T05:36:26.417Z,15.55
2023-03-07T05:37:49.818Z,13.67
2023-03-07T05:39:11.644Z,12.27
2023-03-07T05:40:36.229Z,8.99
2023-03-07T05:42:04.761Z,10.71
2023-03-07T05:43:36.696Z,10.53
2023-03-07T05:45:04.693Z,10.74
2023-03-07T05:46:27.592Z,11.17
2023-03-07T05:49:52.786Z,10.02
2023-03-07T05:51:15.216Z,11.15
2023-03-07T05:52:41.206Z,11.41
2023-03-07T05:54:06.404Z,10.36
2023-03-07T05:55:39.931Z,9.98
2023-03-07T06:00:12.353Z,11.81
2023-03-07T06:01:37.971Z,12.06
2023-03-07T06:12:21.970Z,13.00
2023-03-07T06:13:44.913Z,9.00
2023-03-07T06:15:15.127Z,12.02
2023-03-07T06:16:38.929Z,10.50
2023-03-07T06:18:16.482Z,10.31
2023-03-07T06:19:55.710Z,11.22
2023-03-07T06:21:35.052Z,12.01
2023-03-07T06:23:05.207Z,12.36
2023-03-07T06:24:27.604Z,13.76
2023-03-07T06:25:49.624Z,12.03
2023-03-07T06:27:12.409Z,11.98
2023-03-07T06:28:34.489Z,13.13
2023-03-07T06:30:03.967Z,12.82
2023-03-07T06:31:49.357Z,12.80
2023-03-07T06:33:13.092Z,13.91
2023-03-07T06:42:09.395Z,13.72
2023-03-07T06:43:38.967Z,15.60
2023-03-07T06:48:31.722Z,15.85
2023-03-07T06:49:56.878Z,18.43
2023-03-07T06:51:21.301Z,16.22
2023-03-07T06:52:52.628Z,15.12
2023-03-07T06:55:34.518Z,14.07
2023-03-07T06:56:56.799Z,15.39
2023-03-07T06:58:20.169Z,14.12
2023-03-07T06:59:42.426Z,15.16
2023-03-07T07:01:08.357Z,16.10
2023-03-07T07:02:31.176Z,15.40
2023-03-07T07:03:58.879Z,16.11
2023-03-07T07:05:24.450Z,15.36
2023-03-07T07:06:48.215Z,16.42
2023-03-07T07:08:13.709Z,15.50
2023-03-07T07:09:36.118Z,16.66
2023-03-07T07:10:59.661Z,17.20
2023-03-07T07:12:21.628Z,14.66
2023-03-07T07:13:45.868Z,15.87
2023-03-07T07:15:09.995Z,15.31
2023-03-07T07:16:31.729Z,16.64
2023-03-07T07:17:55.620Z,16.32
2023-03-07T07:19:21.736Z,15.92
2023-03-07T07:20:44.327Z,15.89
2023-03-07T07:22:06.859Z,13.99
2023-03-07T07:23:30.545Z,17.47
2023-03-07T07:24:53.036Z,18.38
2023-03-07T07:27:37.745Z,17.67
2023-03-07T07:29:01.094Z,16.76
2023-03-07T07:30:24.226Z,16.03
2023-03-07T07:31:46.604Z,15.76
2023-03-07T07:33:09.098Z,17.66
2023-03-07T07:34:32.036Z,20.86
2023-03-07T07:37:25.063Z,15.61
2023-03-07T07:38:49.468Z,15.83
2023-03-07T07:41:58.094Z,15.67
2023-03-07T07:43:23.747Z,16.69
2023-03-07T07:44:46.653Z,15.62
2023-03-07T07:46:08.120Z,14.83
2023-03-07T07:47:33.665Z,14.18
2023-03-07T07:48:58.451Z,14.12
2023-03-07T07:50:21.560Z,14.47
2023-03-07T07:53:28.597Z,16.71
2023-03-07T07:54:51.009Z,17.66
2023-03-07T07:56:18.022Z,27.29
2023-03-07T07:57:40.958Z,16.44
2023-03-07T08:00:45.964Z,17.18
2023-03-07T08:02:14.052Z,16.93
2023-03-07T08:03:36.128Z,17.15
2023-03-07T08:04:59.830Z,17.23
2023-03-07T08:06:26.310Z,16.34
2023-03-07T08:07:51.364Z,15.97
2023-03-07T08:09:14.825Z,16.38
2023-03-07T08:10:44.713Z,17.38
2023-03-07T08:12:13.020Z,14.90
2023-03-07T08:13:38.431Z,16.69
2023-03-07T08:15:01.546Z,14.36
2023-03-07T08:16:23.521Z,16.38
2023-03-07T08:17:48.702Z,17.08
2023-03-07T08:22:36.233Z,16.74
2023-03-07T08:23:58.516Z,17.26
2023-03-07T08:25:23.800Z,15.71
2023-03-07T08:26:45.263Z,17.39
2023-03-07T08:28:09.715Z,14.95
2023-03-07T08:29:33.403Z,16.31
2023-03-07T08:30:57.050Z,16.20
2023-03-07T08:34:00.865Z,17.06
2023-03-07T08:35:23.419Z,16.18
2023-03-07T08:36:53.796Z,17.01
2023-03-07T08:38:16.001Z,17.21
2023-03-07T08:39:40.348Z,16.88
2023-03-07T08:41:05.533Z,16.07
2023-03-07T08:42:29.475Z,16.44
2023-03-07T08:43:51.358Z,14.87
2023-03-07T08:45:15.782Z,15.17
2023-03-07T08:46:42.061Z,15.36
2023-03-07T08:48:04.778Z,15.16
2023-03-07T08:49:26.845Z,13.11
2023-03-07T08:50:54.657Z,11.77
2023-03-07T08:52:22.703Z,13.87
2023-03-07T08:53:48.561Z,15.17
2023-03-07T08:55:12.498Z,15.09
2023-03-07T08:56:35.593Z,14.33
2023-03-07T08:57:59.629Z,17.17
2023-03-07T09:01:17.198Z,18.52
2023-03-07T09:02:50.491Z,15.78
2023-03-07T09:04:25.702Z,18.57
2023-03-07T09:05:51.753Z,17.07
2023-03-07T09:07:19.169Z,23.79
2023-03-07T09:08:43.575Z,21.57
2023-03-07T09:10:13.299Z,15.19
2023-03-07T09:15:19.673Z,16.86
2023-03-07T09:16:57.983Z,21.13
2023-03-07T09:18:22.227Z,15.93
2023-03-07T09:25:00.927Z,16.73
2023-03-07T09:40:21.529Z,20.32
2023-03-07T16:06:46.975Z,19.19
2023-03-07T16:08:14.391Z,23.57
2023-03-07T16:09:39.755Z,26.76
2023-03-07T16:11:12.616Z,33.89
2023-03-07T16:12:34.699Z,27.00
2023-03-07T16:27:02.843Z,31.67
2023-03-07T16:54:26.040Z,28.29
2023-03-07T17:04:49.933Z,22.74
2023-03-07T17:20:53.078Z,24.36
2023-03-07T17:34:30.796Z,26.19
2023-03-07T17:36:11.280Z,25.92
2023-03-07T17:41:07.276Z,24.89
2023-03-07T17:42:34.675Z,24.32
2023-03-07T17:45:51.331Z,23.64
2023-03-07T17:47:22.177Z,27.33
2023-03-07T17:49:06.249Z,30.92
2023-03-07T17:54:26.354Z,24.67
2023-03-07T17:57:42.575Z,24.83
2023-03-07T18:01:03.611Z,27.71
2023-03-07T18:04:15.529Z,26.75
2023-03-07T18:07:49.425Z,28.31
2023-03-07T18:09:13.054Z,26.38
2023-03-07T18:10:38.345Z,25.88
2023-03-07T18:12:00.051Z,30.74
2023-03-07T18:13:28.396Z,29.13
2023-03-07T18:14:50.656Z,27.74
2023-03-07T18:16:14.101Z,27.45
2023-03-07T18:17:47.471Z,30.16
2023-03-07T18:19:17.140Z,25.97
2023-03-07T18:20:49.027Z,29.03
2023-03-07T18:22:20.996Z,30.26
2023-03-07T18:23:46.448Z,22.89
2023-03-07T18:25:20.408Z,24.63
2023-03-07T18:26:52.242Z,38.19
2023-03-07T18:29:46.860Z,26.49
2023-03-07T18:32:56.634Z,23.77
2023-03-07T18:36:32.488Z,26.56
2023-03-07T18:37:56.356Z,26.70
2023-03-07T18:39:20.056Z,26.77
2023-03-07T18:42:27.078Z,23.58
2023-03-07T18:43:49.736Z,25.66
2023-03-07T18:45:16.131Z,20.93
2023-03-07T18:46:37.987Z,27.58
2023-03-07T18:47:59.989Z,35.84
2023-03-07T18:53:05.636Z,25.52
2023-03-07T18:54:28.575Z,30.89
2023-03-07T18:55:52.200Z,29.81
2023-03-07T18:57:14.461Z,33.04
2023-03-07T18:58:35.832Z,27.38
2023-03-07T18:59:57.725Z,29.36
2023-03-07T19:01:35.073Z,30.42
2023-03-07T19:02:59.775Z,28.14
2023-03-07T19:04:28.306Z,27.17
2023-03-07T19:07:43.224Z,29.81
2023-03-07T19:10:26.229Z,20.25
2023-03-07T19:11:54.388Z,41.68
2023-03-07T19:13:24.475Z,39.94
2023-03-07T19:16:37.435Z,47.50
2023-03-07T19:18:10.620Z,33.33
2023-03-07T19:19:34.800Z,28.63
2023-03-07T19:23:00.698Z,31.18
2023-03-07T19:24:24.251Z,35.24
2023-03-07T19:25:46.446Z,33.96
2023-03-07T19:27:17.130Z,31.38
2023-03-07T19:28:41.188Z,32.28
2023-03-07T19:30:03.614Z,27.34
2023-03-07T19:31:29.718Z,35.78
2023-03-07T19:33:11.504Z,32.30
2023-03-07T19:39:24.200Z,29.14
2023-03-07T19:40:57.168Z,31.83
2023-03-07T19:44:05.332Z,32.98
2023-03-07T19:45:34.420Z,29.33
2023-03-07T19:46:58.818Z,28.69
2023-03-07T19:48:23.848Z,31.69
2023-03-07T19:50:08.328Z,35.21
2023-03-07T19:51:30.301Z,34.22
2023-03-07T19:54:51.464Z,35.36
2023-03-07T19:56:20.814Z,35.17
2023-03-07T19:57:47.472Z,43.24
2023-03-07T19:59:16.371Z,39.52
2023-03-07T20:00:39.732Z,38.73
2023-03-07T20:02:03.384Z,34.45
2023-03-07T20:03:25.821Z,32.73
2023-03-07T20:04:50.467Z,35.56
2023-03-07T20:09:25.777Z,30.48
2023-03-07T20:11:07.292Z,37.09
2023-03-07T20:12:24.880Z,35.29
2023-03-07T20:13:48.717Z,35.08
2023-03-07T20:15:14.413Z,35.53
2023-03-07T20:18:27.125Z,36.78
2023-03-07T20:20:08.220Z,35.72
2023-03-07T20:21:40.043Z,35.69
2023-03-07T20:23:07.248Z,33.66
2023-03-07T20:24:28.790Z,29.13
2023-03-07T20:25:53.742Z,33.00
2023-03-07T20:27:15.598Z,33.62
2023-03-07T20:28:37.776Z,34.47
2023-03-07T20:31:43.858Z,40.29
2023-03-07T20:33:05.773Z,38.13
2023-03-07T20:34:27.572Z,29.72
2023-03-07T20:36:04.972Z,45.53
2023-03-07T20:37:29.502Z,35.24
2023-03-07T20:40:53.538Z,41.17
2023-03-07T20:42:16.921Z,31.12
2023-03-07T20:45:34.452Z,37.40
2023-03-07T20:46:57.763Z,39.28
2023-03-07T20:48:20.229Z,31.43
2023-03-07T20:49:42.420Z,30.78
2023-03-07T20:51:27.335Z,21.04
2023-03-07T20:52:51.102Z,28.26
2023-03-07T20:54:25.868Z,29.32
2023-03-07T20:55:49.730Z,27.14
2023-03-07T20:57:17.262Z,25.38
2023-03-07T21:00:34.563Z,24.72
2023-03-07T21:02:04.728Z,30.76
2023-03-07T21:03:27.788Z,29.02
2023-03-07T21:04:54.574Z,28.74
2023-03-07T21:06:18.401Z,31.10
2023-03-07T21:07:42.161Z,28.98
2023-03-07T21:09:04.996Z,31.91
2023-03-07T21:10:32.304Z,33.84
2023-03-07T21:11:57.930Z,34.23
2023-03-07T21:13:23.007Z,35.93
2023-03-07T21:14:45.165Z,28.77
2023-03-07T21:16:19.819Z,36.37
2023-03-07T21:17:43.482Z,36.88
2023-03-07T21:19:07.145Z,38.06
2023-03-07T21:20:30.066Z,41.31
2023-03-07T21:21:51.231Z,39.48
2023-03-07T21:23:14.994Z,40.01
2023-03-07T21:24:37.410Z,35.31
2023-03-07T21:26:12.950Z,32.46
2023-03-07T21:27:36.838Z,32.08
2023-03-07T21:28:59.295Z,34.62
2023-03-07T21:30:24.511Z,35.13
2023-03-07T21:31:46.234Z,48.48
2023-03-07T21:33:14.746Z,46.98
2023-03-07T21:34:38.118Z,44.02
2023-03-07T21:36:02.898Z,49.94
2023-03-07T21:37:28.286Z,52.75
2023-03-07T21:38:50.912Z,54.89
2023-03-07T21:40:16.098Z,57.48
2023-03-07T21:41:39.406Z,64.62
2023-03-07T21:43:05.572Z,75.28
2023-03-07T21:44:29.112Z,53.80
2023-03-07T21:45:51.678Z,71.24
2023-03-07T21:48:38.223Z,69.91
2023-03-07T21:50:01.129Z,127.07
2023-03-07T21:51:23.751Z,90.81
2023-03-07T21:52:45.937Z,72.91
2023-03-07T21:54:08.130Z,70.99
2023-03-07T21:55:30.873Z,80.76
2023-03-07T21:56:54.673Z,70.08
2023-03-07T21:58:16.591Z,61.17
2023-03-07T21:59:40.524Z,62.98
2023-03-07T22:01:14.659Z,61.44
2023-03-07T22:02:36.943Z,61.00
2023-03-07T22:04:00.318Z,60.58
2023-03-07T22:05:39.468Z,56.34
2023-03-07T22:07:02.088Z,67.50
2023-03-07T22:08:23.619Z,71.24
2023-03-07T22:09:46.782Z,62.23
2023-03-07T22:11:09.960Z,44.98
2023-03-07T22:12:31.949Z,45.17
2023-03-07T22:13:54.498Z,68.02
2023-03-07T22:15:16.680Z,36.87
2023-03-07T22:16:38.510Z,41.89
2023-03-07T22:18:00.405Z,35.78
2023-03-07T22:19:23.011Z,29.23
2023-03-07T22:20:47.064Z,24.91
2023-03-07T22:22:09.145Z,25.66
2023-03-07T22:23:31.338Z,24.33
2023-03-07T22:24:53.161Z,27.64
2023-03-07T22:26:15.751Z,28.98
2023-03-07T22:27:37.896Z,29.18
2023-03-07T22:29:03.329Z,28.30
2023-03-07T22:30:25.237Z,30.91
2023-03-07T22:31:47.229Z,48.36
2023-03-07T22:33:08.788Z,25.53
2023-03-07T22:34:30.885Z,62.76
2023-03-07T22:35:59.822Z,27.75
2023-03-07T22:37:22.221Z,28.41
2023-03-07T22:40:07.942Z,27.24
2023-03-07T22:41:29.530Z,24.54
2023-03-07T22:42:51.226Z,23.53
2023-03-07T22:44:14.439Z,27.49
2023-03-07T22:47:00.391Z,25.21
2023-03-07T22:48:23.044Z,24.26
2023-03-07T22:49:44.695Z,28.30
2023-03-07T22:51:12.869Z,22.97
2023-03-07T22:52:34.722Z,24.08
2023-03-07T22:53:56.702Z,18.49
2023-03-07T22:55:18.999Z,25.48
2023-03-07T22:56:41.227Z,23.59
2023-03-07T22:58:04.699Z,26.96
2023-03-07T22:59:30.797Z,23.00
2023-03-07T23:00:56.162Z,25.86
2023-03-07T23:02:19.933Z,27.45
2023-03-07T23:03:42.822Z,24.58
2023-03-07T23:05:04.868Z,26.20
2023-03-07T23:06:28.579Z,19.47
2023-03-07T23:07:50.420Z,27.71
2023-03-07T23:09:12.304Z,26.58
2023-03-07T23:10:35.745Z,21.05
2023-03-07T23:11:57.775Z,27.24
2023-03-07T23:13:21.149Z,21.76
2023-03-07T23:14:43.238Z,26.98
2023-03-07T23:16:11.180Z,25.91
2023-03-07T23:17:42.064Z,26.43
2023-03-07T23:19:07.040Z,25.18
2023-03-07T23:20:28.440Z,25.25
2023-03-07T23:21:53.028Z,25.33
2023-03-07T23:23:15.350Z,22.44
2023-03-07T23:24:37.700Z,25.34
2023-03-07T23:26:00.090Z,24.11
2023-03-07T23:28:50.621Z,25.78
2023-03-07T23:30:13.258Z,24.24
2023-03-07T23:31:39.988Z,28.36
2023-03-07T23:33:01.732Z,26.54
2023-03-07T23:34:25.195Z,18.35
2023-03-07T23:35:48.119Z,23.74
2023-03-07T23:37:10.951Z,25.12
2023-03-07T23:38:36.327Z,26.87
2023-03-07T23:39:58.082Z,26.43
2023-03-07T23:41:20.894Z,24.48
2023-03-07T23:42:45.362Z,25.44
2023-03-07T23:44:07.676Z,24.04
2023-03-07T23:45:29.034Z,25.52
2023-03-07T23:46:51.693Z,26.57
2023-03-07T23:48:13.823Z,27.67
2023-03-07T23:49:36.645Z,27.62
2023-03-07T23:50:58.825Z,33.30
2023-03-07T23:52:22.963Z,27.88
2023-03-07T23:53:46.533Z,33.62
2023-03-07T23:55:12.575Z,33.29
2023-03-07T23:56:35.706Z,31.39
2023-03-07T23:59:18.523Z,26.70
